Time;durP1;ratioP1;P1;durP2;ratioP2;P2;SDS_P1;SDS_P2;PMS_P1;PMS_P2;Temp;Humidity;BMP_temperature;BMP_pressure;BME280_temperature;BME280_humidity;BME280_pressure;Samples;Min_cycle;Max_cycle;Signal;HPM_P1;HPM_P2
2022/01/08 00:00:43;;;;;;;4.80;2.43;;;;;;;-1.01;100.00;96017.97;10536514;28;20273;-77
2022/01/08 00:05:44;;;;;;;3.17;2.30;;;;;;;-1.14;100.00;96014.56;10536131;28;20409;-77
2022/01/08 00:10:44;;;;;;;1.73;1.63;;;;;;;-1.37;100.00;96013.50;10535554;28;20194;-77
2022/01/08 00:15:44;;;;;;;5.60;2.77;;;;;;;-1.22;100.00;96021.97;10535933;28;20210;-77
2022/01/08 00:20:45;;;;;;;5.27;2.63;;;;;;;-1.21;100.00;96019.31;10536008;28;20198;-77
2022/01/08 00:25:45;;;;;;;3.13;2.80;;;;;;;-1.12;100.00;96034.09;10534978;28;20194;-77
2022/01/08 00:30:47;;;;;;;4.10;2.63;;;;;;;-0.96;100.00;96048.50;10535494;28;20190;-77
2022/01/08 00:35:48;;;;;;;4.57;3.10;;;;;;;-0.70;100.00;96058.78;10543844;28;20222;-77
2022/01/08 00:40:48;;;;;;;4.37;3.70;;;;;;;-0.59;100.00;96084.63;10543551;28;20725;-77
2022/01/08 00:45:48;;;;;;;4.43;3.10;;;;;;;-0.53;100.00;96079.06;10544174;28;20215;-77
2022/01/08 00:50:50;;;;;;;4.77;3.40;;;;;;;-0.48;100.00;96066.69;10543242;28;20187;-77
2022/01/08 00:55:50;;;;;;;4.27;3.43;;;;;;;-0.46;100.00;96080.31;10543549;28;20224;-76
2022/01/08 01:00:50;;;;;;;5.30;3.70;;;;;;;-0.44;100.00;96060.44;10543323;28;20202;-77
2022/01/08 01:05:51;;;;;;;4.03;3.30;;;;;;;-0.34;100.00;96055.47;10543157;28;20203;-77
2022/01/08 01:10:51;;;;;;;3.97;2.90;;;;;;;-0.34;100.00;96049.50;10542784;28;20646;-77
2022/01/08 01:15:52;;;;;;;4.03;3.10;;;;;;;-0.29;100.00;96037.13;10542767;28;20218;-77
2022/01/08 01:20:52;;;;;;;4.60;3.43;;;;;;;-0.41;100.00;96034.50;10542480;28;20187;-77
2022/01/08 01:25:58;;;;;;;3.67;2.77;;;;;;;-0.61;100.00;96028.13;10524527;28;20193;-77
2022/01/08 01:41:43;;;;;;;6.30;4.20;;;;;;;-0.96;100.00;96025.38;10541695;28;20205;-77
2022/01/08 01:52:04;;;;;;;5.03;3.57;;;;;;;-1.06;100.00;95998.63;10541227;28;20605;-77
2022/01/08 01:57:06;;;;;;;7.03;4.00;;;;;;;-1.29;100.00;96004.38;10541336;28;20214;-77
2022/01/08 02:02:07;;;;;;;5.63;4.10;;;;;;;-1.35;100.00;96009.09;10539121;28;20197;-77
2022/01/08 02:07:08;;;;;;;6.07;4.40;;;;;;;-1.40;100.00;96013.72;10506174;28;20187;-77
2022/01/08 02:12:17;;;;;;;4.43;3.23;;;;;;;-1.33;100.00;95999.53;10505023;28;20183;-77
2022/01/08 02:17:18;;;;;;;6.80;4.00;;;;;;;-1.47;100.00;95991.00;10506785;28;20271;-77
2022/01/08 02:22:20;;;;;;;5.00;3.37;;;;;;;-1.41;100.00;95981.22;10539677;28;20293;-77
2022/01/08 02:27:21;;;;;;;5.37;3.80;;;;;;;-1.42;100.00;95987.28;10540067;28;20205;-77
2022/01/08 02:32:29;;;;;;;4.37;3.27;;;;;;;-1.42;100.00;95974.44;10521715;28;20190;-77
2022/01/08 02:37:30;;;;;;;3.53;2.40;;;;;;;-1.38;100.00;95981.03;10539374;28;20226;-77
2022/01/08 02:42:40;;;;;;;5.00;3.23;;;;;;;-1.41;100.00;95969.19;10539583;28;20190;-76
2022/01/08 02:47:40;;;;;;;3.10;2.03;;;;;;;-1.51;100.00;95963.84;10538671;28;20282;-77
2022/01/08 02:52:43;;;;;;;3.50;2.73;;;;;;;-1.39;100.00;95974.22;10539462;28;20536;-77
2022/01/08 02:57:44;;;;;;;2.53;2.33;;;;;;;-1.14;100.00;95969.13;10520376;28;20356;-77
2022/01/08 03:02:48;;;;;;;2.63;2.40;;;;;;;-0.99;100.00;95957.00;10538782;28;20265;-77
2022/01/08 03:07:49;;;;;;;3.27;2.60;;;;;;;-1.01;100.00;95958.84;10538390;28;20229;-78
2022/01/08 03:12:50;;;;;;;3.83;2.90;;;;;;;-1.02;100.00;95962.34;10537901;28;20190;-77
2022/01/08 03:17:50;;;;;;;5.33;2.63;;;;;;;-0.78;100.00;95952.13;10537643;28;20222;-77
2022/01/08 03:22:51;;;;;;;5.63;2.50;;;;;;;-0.63;100.00;95942.56;10537015;28;20213;-77
2022/01/08 03:27:53;;;;;;;2.40;2.20;;;;;;;-0.54;100.00;95946.22;10537985;28;20187;-77
2022/01/08 03:32:53;;;;;;;2.63;2.40;;;;;;;-0.57;100.00;95938.72;10537768;28;20190;-77
2022/01/08 03:37:54;;;;;;;3.60;2.37;;;;;;;-0.47;100.00;95920.91;10536995;28;20245;-77
2022/01/08 03:42:54;;;;;;;3.03;2.40;;;;;;;-0.54;100.00;95915.34;10537319;28;20194;-77
2022/01/08 03:48:17;;;;;;;3.10;2.40;;;;;;;-0.58;100.00;95917.31;10536645;28;20339;-76
2022/01/08 03:53:17;;;;;;;2.50;2.20;;;;;;;-0.61;100.00;95919.28;10537317;28;20201;-76
2022/01/08 03:58:18;;;;;;;3.93;2.27;;;;;;;-0.55;100.00;95911.16;10536802;28;20693;-76
2022/01/08 04:03:19;;;;;;;2.67;2.30;;;;;;;-0.55;100.00;95916.28;10533239;28;20217;-77
2022/01/08 04:08:20;;;;;;;3.13;2.37;;;;;;;-0.45;100.00;95917.25;10529471;28;20264;-76
2022/01/08 04:13:27;;;;;;;2.93;2.13;;;;;;;-0.37;100.00;95925.28;10528023;28;20198;-77
2022/01/08 04:18:27;;;;;;;4.07;2.10;;;;;;;-0.29;100.00;95921.31;10528615;28;20221;-77
2022/01/08 04:23:28;;;;;;;3.10;1.93;;;;;;;-0.31;100.00;95912.91;10529507;28;20552;-77
2022/01/08 04:28:28;;;;;;;5.50;2.30;;;;;;;-0.30;100.00;95911.97;10529081;28;20194;-77
2022/01/08 04:33:29;;;;;;;2.30;2.10;;;;;;;-0.28;100.00;95899.81;10510474;28;20273;-77
2022/01/08 04:38:29;;;;;;;2.63;2.13;;;;;;;-0.37;100.00;95909.84;10506998;28;20330;-77
2022/01/08 04:43:30;;;;;;;3.27;2.10;;;;;;;-0.35;100.00;95899.44;10486412;28;20249;-77
2022/01/08 04:48:30;;;;;;;2.33;2.03;;;;;;;-0.47;100.00;95902.88;10468935;28;20274;-77
2022/01/08 04:53:31;;;;;;;5.47;2.43;;;;;;;-0.46;100.00;95902.78;10486644;28;20191;-77
2022/01/08 04:58:31;;;;;;;6.37;3.13;;;;;;;-0.56;100.00;95906.91;10486745;28;20210;-77
2022/01/08 05:03:31;;;;;;;5.53;2.80;;;;;;;-0.58;100.00;95911.38;10491250;28;20190;-78
2022/01/08 05:08:32;;;;;;;3.23;2.40;;;;;;;-0.47;100.00;95905.47;10475831;28;20191;-77
2022/01/08 05:13:32;;;;;;;4.10;2.30;;;;;;;-0.42;100.00;95905.94;10475554;28;20210;-77
2022/01/08 05:18:33;;;;;;;3.07;1.57;;;;;;;-0.31;100.00;95900.03;10496018;28;20298;-77
2022/01/08 05:23:34;;;;;;;4.50;2.50;;;;;;;-0.41;100.00;95894.72;10503540;28;20654;-77
2022/01/08 05:28:34;;;;;;;3.03;2.30;;;;;;;-0.40;100.00;95888.63;10500848;28;20262;-77
2022/01/08 05:33:34;;;;;;;2.93;1.70;;;;;;;-0.26;100.00;95875.63;10483246;28;20188;-77
2022/01/08 05:38:35;;;;;;;2.53;1.80;;;;;;;-0.68;100.00;95887.19;10523108;28;20237;-78
2022/01/08 05:43:35;;;;;;;1.70;1.60;;;;;;;-0.49;100.00;95877.28;10541766;28;20265;-78
2022/01/08 05:48:37;;;;;;;3.40;2.00;;;;;;;-0.41;100.00;95879.28;10541918;28;20239;-77
2022/01/08 05:53:37;;;;;;;2.70;1.90;;;;;;;-0.66;100.00;95906.75;10541440;28;20546;-77
2022/01/08 05:58:38;;;;;;;2.37;2.03;;;;;;;-0.51;100.00;95893.72;10541264;28;20218;-78
2022/01/08 06:03:38;;;;;;;2.47;2.03;;;;;;;-0.48;100.00;95891.75;10540956;28;20201;-77
2022/01/08 06:08:39;;;;;;;2.70;1.90;;;;;;;-0.46;100.00;95896.78;10541074;28;20186;-77
2022/01/08 06:13:39;;;;;;;1.57;1.47;;;;;;;-0.46;100.00;95900.22;10540061;28;20187;-77
2022/01/08 06:18:40;;;;;;;3.20;2.50;;;;;;;-0.44;100.00;95890.63;10540718;28;20267;-77
2022/01/08 06:23:40;;;;;;;2.33;2.03;;;;;;;-0.44;100.00;95884.66;10522076;28;20190;-77
2022/01/08 06:28:40;;;;;;;3.00;2.67;;;;;;;-0.58;100.00;95880.50;10539956;28;20183;-77
2022/01/08 06:33:41;;;;;;;3.37;2.60;;;;;;;-0.55;100.00;95875.94;10539449;28;20277;-77
2022/01/08 06:38:42;;;;;;;3.70;2.50;;;;;;;-0.48;100.00;95883.22;10539413;28;20226;-77
2022/01/08 06:43:43;;;;;;;4.60;3.20;;;;;;;-0.42;100.00;95875.88;10539528;28;20646;-77
2022/01/08 06:48:43;;;;;;;5.03;3.63;;;;;;;-0.42;100.00;95878.44;10538976;28;20741;-77
2022/01/08 06:53:43;;;;;;;6.00;3.60;;;;;;;-0.36;100.00;95883.16;10538805;28;20195;-77
2022/01/08 06:58:45;;;;;;;3.73;2.77;;;;;;;-0.37;100.00;95894.41;10515195;28;20264;-78
2022/01/08 07:03:45;;;;;;;4.20;3.10;;;;;;;-0.39;100.00;95910.88;10516645;28;20198;-77
2022/01/08 07:08:45;;;;;;;4.93;4.13;;;;;;;-0.42;100.00;95923.94;10517113;28;20178;-77
2022/01/08 07:13:46;;;;;;;5.37;4.17;;;;;;;-0.54;100.00;95928.19;10538624;28;20185;-77
2022/01/08 07:18:46;;;;;;;7.70;5.67;;;;;;;-0.78;100.00;95923.84;10538713;28;20275;-77
2022/01/08 07:23:48;;;;;;;8.90;5.00;;;;;;;-0.81;100.00;95928.38;10537805;28;20494;-77
2022/01/08 07:28:48;;;;;;;13.03;6.53;;;;;;;-0.86;100.00;95933.00;10503366;28;20222;-77
2022/01/08 07:33:49;;;;;;;11.43;7.00;;;;;;;-0.87;100.00;95931.34;10538099;28;20283;-77
2022/01/08 07:38:50;;;;;;;14.73;9.47;;;;;;;-0.93;100.00;95938.56;10537054;28;20671;-77
2022/01/08 07:43:50;;;;;;;15.27;8.90;;;;;;;-0.91;100.00;95930.75;10536708;28;20198;-76
2022/01/08 07:48:51;;;;;;;14.23;8.87;;;;;;;-0.85;100.00;95940.63;10537087;28;20297;-76
2022/01/08 07:53:51;;;;;;;15.70;9.13;;;;;;;-0.90;100.00;95946.06;10536526;28;20191;-78
2022/01/08 07:58:51;;;;;;;13.13;8.33;;;;;;;-0.78;100.00;95948.72;10509701;28;20222;-77
2022/01/08 08:03:52;;;;;;;13.83;8.70;;;;;;;-0.85;100.00;95948.34;10533912;28;20198;-77
2022/01/08 08:08:52;;;;;;;15.37;8.57;;;;;;;-0.77;100.00;95945.22;10534473;28;20194;-78
2022/01/08 08:13:53;;;;;;;12.33;8.47;;;;;;;-0.87;100.00;95944.22;10534491;28;20190;-77
2022/01/08 08:18:53;;;;;;;14.83;8.97;;;;;;;-0.93;100.00;95943.72;10534424;28;20322;-77
2022/01/08 08:23:53;;;;;;;9.40;5.70;;;;;;;-0.95;100.00;95940.44;10534189;28;20198;-77
2022/01/08 08:28:54;;;;;;;13.47;8.73;;;;;;;-0.89;100.00;95946.88;10533730;28;20189;-78
2022/01/08 08:33:54;;;;;;;16.47;8.40;;;;;;;-0.90;100.00;95937.56;10534179;28;20205;-78
2022/01/08 08:38:55;;;;;;;16.20;10.13;;;;;;;-0.88;100.00;95938.25;10533025;28;20387;-78
2022/01/08 08:43:55;;;;;;;17.13;9.00;;;;;;;-0.80;100.00;95943.69;10533608;28;20214;-78
2022/01/08 08:48:55;;;;;;;16.67;9.70;;;;;;;-0.76;100.00;95940.00;10534243;28;20261;-78
2022/01/08 08:53:56;;;;;;;12.67;8.60;;;;;;;-0.74;100.00;95940.69;10537067;28;20188;-77
2022/01/08 08:58:56;;;;;;;15.20;9.73;;;;;;;-0.73;100.00;95942.34;10542185;28;20244;-77
2022/01/08 09:03:56;;;;;;;10.37;7.23;;;;;;;-0.68;100.00;95942.03;10541868;28;20226;-77
2022/01/08 09:08:57;;;;;;;7.10;5.00;;;;;;;-0.63;100.00;95949.44;10541062;28;20289;-77
2022/01/08 09:13:57;;;;;;;11.63;7.77;;;;;;;-0.57;100.00;95946.44;10541731;28;20187;-77
2022/01/08 09:18:59;;;;;;;167.53;55.57;;;;;;;-0.50;100.00;95947.66;10549286;28;20209;-77
2022/01/08 09:23:59;;;;;;;43.10;19.30;;;;;;;-0.37;100.00;95943.28;10561190;28;20190;-77
2022/01/08 09:28:59;;;;;;;14.13;9.20;;;;;;;-0.33;100.00;95943.06;10541109;28;20654;-76
2022/01/08 09:34:00;;;;;;;12.57;8.23;;;;;;;-0.11;100.00;95929.50;10540325;28;20624;-75
2022/01/08 09:39:01;;;;;;;13.70;7.37;;;;;;;-0.11;100.00;95930.31;10539924;28;20238;-76
2022/01/08 09:44:01;;;;;;;12.00;7.47;;;;;;;-0.15;100.00;95921.19;10521515;28;20205;-76
2022/01/08 09:49:02;;;;;;;8.87;6.77;;;;;;;-0.23;100.00;95928.59;10539577;28;20184;-76
2022/01/08 09:54:03;;;;;;;12.27;8.57;;;;;;;-0.27;100.00;95928.00;10538710;28;20668;-75
2022/01/08 09:59:03;;;;;;;13.53;9.60;;;;;;;-0.32;100.00;95913.81;10538811;28;20218;-76
2022/01/08 10:04:05;;;;;;;13.90;10.03;;;;;;;-0.32;100.00;95924.97;10538212;28;20187;-76
2022/01/08 10:09:05;;;;;;;16.40;9.53;;;;;;;-0.38;100.00;95904.81;10539468;28;20191;-75
2022/01/08 10:14:14;;;;;;;11.23;7.77;;;;;;;-0.45;100.00;95909.53;10539197;28;20260;-76
2022/01/08 10:19:20;;;;;;;12.40;8.93;;;;;;;-0.40;100.00;95909.22;10538784;28;20227;-76
2022/01/08 10:24:28;;;;;;;14.73;9.87;;;;;;;-0.48;100.00;95904.63;10538594;28;20228;-76
2022/01/08 10:29:28;;;;;;;17.20;9.33;;;;;;;-0.26;100.00;95903.09;10539323;28;20191;-76
2022/01/08 10:34:30;;;;;;;19.63;12.67;;;;;;;-0.23;100.00;95898.56;10537785;28;20194;-76
2022/01/08 10:39:36;;;;;;;14.13;9.90;;;;;;;-0.24;100.00;95901.25;10519288;28;20230;-75
2022/01/08 10:44:36;;;;;;;11.67;8.20;;;;;;;-0.32;100.00;95899.22;10519567;28;20182;-76
2022/01/08 10:49:44;;;;;;;10.70;7.50;;;;;;;-0.29;100.00;95893.84;10518485;28;20197;-75
2022/01/08 10:54:47;;;;;;;12.30;8.13;;;;;;;-0.25;100.00;95894.44;10535873;28;20186;-76
2022/01/08 10:59:55;;;;;;;11.83;8.67;;;;;;;-0.19;100.00;95889.66;10536219;28;20219;-76
2022/01/08 11:04:55;;;;;;;16.67;8.87;;;;;;;-0.21;100.00;95894.13;10518627;28;20194;-76
2022/01/08 11:10:00;;;;;;;11.70;8.60;;;;;;;0.04;100.00;95891.53;10536241;28;20187;-76
2022/01/08 11:20:22;;;;;;;9.90;7.10;;;;;;;0.10;100.00;95885.94;10535050;28;20595;-76
2022/01/08 11:25:33;;;;;;;10.80;7.17;;;;;;;-0.15;100.00;95874.84;10535477;28;20187;-76
2022/01/08 11:30:35;;;;;;;12.00;7.87;;;;;;;-0.11;100.00;95875.44;10535073;28;20191;-76
2022/01/08 11:35:37;;;;;;;12.57;8.73;;;;;;;-0.25;100.00;95868.72;10517427;28;20219;-77
2022/01/08 11:40:40;;;;;;;11.10;7.93;;;;;;;-0.14;100.00;95879.03;10534994;28;20290;-77
2022/01/08 11:46:00;;;;;;;12.33;8.00;;;;;;;-0.37;100.00;95873.81;10516651;28;20188;-77
2022/01/08 11:51:02;;;;;;;9.00;6.73;;;;;;;-0.34;100.00;95870.19;10534231;28;20255;-78
2022/01/08 11:56:06;;;;;;;8.03;5.23;;;;;;;-0.24;100.00;95867.78;10534798;28;20260;-78
2022/01/08 12:01:12;;;;;;;6.90;4.83;;;;;;;-0.30;100.00;95868.22;10533795;28;20182;-78
2022/01/08 12:06:18;;;;;;;5.80;4.83;;;;;;;-0.39;100.00;95862.78;10534885;28;20216;-78
2022/01/08 12:11:18;;;;;;;4.67;4.20;;;;;;;-0.38;100.00;95863.63;10533515;28;20250;-78
2022/01/08 12:16:33;;;;;;;8.17;5.00;;;;;;;-0.32;100.00;95862.34;10485565;28;20227;-79
2022/01/08 12:21:36;;;;;;;7.27;5.20;;;;;;;-0.06;100.00;95856.16;10492633;28;20556;-76
2022/01/08 12:26:37;;;;;;;7.87;5.90;;;;;;;-0.25;100.00;95869.53;10492307;28;20241;-79
2022/01/08 12:31:42;;;;;;;8.30;5.30;;;;;;;-0.20;100.00;95864.88;10492070;28;20187;-78
2022/01/08 12:36:50;;;;;;;5.57;3.33;;;;;;;-0.06;100.00;95865.59;10484829;28;20239;-77
2022/01/08 12:42:20;;;;;;;7.00;5.30;;;;;;;-0.13;100.00;95862.66;10450502;28;20693;-79
2022/01/08 12:47:38;;;;;;;7.33;5.60;;;;;;;-0.05;100.00;95860.34;10450895;28;20660;-79
2022/01/08 12:53:05;;;;;;;6.57;4.60;;;;;;;0.36;100.00;95855.66;10485703;28;20275;-79
2022/01/08 12:58:15;;;;;;;6.43;4.57;;;;;;;0.49;100.00;95850.41;10491320;28;20223;-78
2022/01/08 13:03:20;;;;;;;6.47;5.43;;;;;;;0.50;100.00;95855.44;10488482;28;20531;-81
2022/01/08 13:08:28;;;;;;;9.83;7.83;;;;;;;0.68;100.00;95853.22;10473956;28;20197;-81
2022/01/08 13:13:48;;;;;;;12.30;6.90;;;;;;;0.16;100.00;95852.81;10492041;28;20269;-81
2022/01/08 13:18:54;;;;;;;9.20;6.80;;;;;;;0.01;100.00;95853.94;10456214;28;20255;-80
2022/01/08 13:23:56;;;;;;;11.17;7.27;;;;;;;-0.12;100.00;95851.44;10472395;28;20200;-81
2022/01/08 13:28:57;;;;;;;8.63;6.57;;;;;;;0.01;100.00;95853.13;10491064;28;20537;-81
2022/01/08 13:33:57;;;;;;;5.33;4.67;;;;;;;0.06;100.00;95861.31;10473970;28;20198;-82
2022/01/08 13:38:57;;;;;;;7.37;5.77;;;;;;;-0.29;100.00;95851.84;10490695;28;20237;-82
2022/01/08 13:44:00;;;;;;;9.03;6.40;;;;;;;-0.25;100.00;95864.38;10498834;28;20650;-81
2022/01/08 13:49:06;;;;;;;5.17;4.20;;;;;;;-0.15;100.00;95859.41;10498217;28;20197;-81
2022/01/08 13:54:08;;;;;;;4.20;2.80;;;;;;;-0.42;100.00;95873.31;10498270;28;20222;-81
2022/01/08 13:59:11;;;;;;;4.70;3.67;;;;;;;-0.47;100.00;95867.69;10497916;28;20252;-82
2022/01/08 14:04:13;;;;;;;3.77;3.10;;;;;;;-0.43;100.00;95866.53;10479938;28;20245;-79
2022/01/08 14:09:18;;;;;;;4.27;3.57;;;;;;;-0.31;100.00;95867.38;10479621;28;20639;-81
2022/01/08 14:14:20;;;;;;;6.30;4.07;;;;;;;-0.23;100.00;95864.25;10497693;28;20611;-81
2022/01/08 14:19:20;;;;;;;5.13;4.07;;;;;;;-0.21;100.00;95865.00;10497020;28;20226;-81
2022/01/08 14:24:24;;;;;;;7.37;3.80;;;;;;;-0.24;100.00;95866.03;10496553;28;20526;-81
2022/01/08 14:29:25;;;;;;;6.57;4.00;;;;;;;-0.37;100.00;95870.41;10497274;28;20730;-81
2022/01/08 14:34:26;;;;;;;8.17;5.30;;;;;;;-0.38;100.00;95864.44;10478318;28;20282;-81
2022/01/08 14:39:30;;;;;;;8.07;5.83;;;;;;;-0.48;100.00;95867.78;10508080;28;20253;-80
2022/01/08 14:44:31;;;;;;;8.20;5.03;;;;;;;-0.65;100.00;95871.56;10538100;28;20195;-80
2022/01/08 14:49:31;;;;;;;6.90;5.63;;;;;;;-0.93;100.00;95876.88;10520214;28;20640;-79
2022/01/08 14:54:33;;;;;;;14.93;6.27;;;;;;;-1.18;100.00;95879.47;10537060;28;20187;-80
2022/01/08 14:59:34;;;;;;;8.80;5.90;;;;;;;-1.20;100.00;95871.88;10537778;28;20271;-79
2022/01/08 15:04:34;;;;;;;8.53;5.00;;;;;;;-1.20;100.00;95873.63;10537259;28;20194;-80
2022/01/08 15:09:35;;;;;;;7.77;3.87;;;;;;;-1.21;100.00;95872.81;10536828;28;20221;-79
2022/01/08 15:14:36;;;;;;;9.80;5.17;;;;;;;-1.17;100.00;95866.53;10536976;28;20190;-79
2022/01/08 15:19:36;;;;;;;7.43;4.70;;;;;;;-1.04;100.00;95861.38;10536410;28;20224;-79
2022/01/08 15:24:37;;;;;;;13.83;6.10;;;;;;;-1.25;100.00;95866.25;10516657;28;20186;-79
2022/01/08 15:29:37;;;;;;;15.70;6.17;;;;;;;-1.19;100.00;95872.72;10536387;28;20190;-79
2022/01/08 15:34:38;;;;;;;13.40;5.63;;;;;;;-1.42;100.00;95879.41;10536271;28;20238;-79
2022/01/08 15:39:38;;;;;;;11.43;7.00;;;;;;;-1.67;100.00;95868.19;10535382;28;20242;-78
2022/01/08 15:44:39;;;;;;;10.97;6.30;;;;;;;-1.59;100.00;95883.94;10518225;28;20222;-78
2022/01/08 15:49:39;;;;;;;10.87;5.97;;;;;;;-1.62;100.00;95869.53;10535481;28;20702;-78
2022/01/08 15:54:40;;;;;;;22.60;11.43;;;;;;;-1.58;100.00;95869.34;10535571;28;20293;-77
2022/01/08 15:59:40;;;;;;;18.20;10.07;;;;;;;-1.62;100.00;95866.97;10515231;28;20690;-77
2022/01/08 16:04:41;;;;;;;25.20;14.00;;;;;;;-1.58;100.00;95857.31;10492625;28;20282;-78
2022/01/08 16:09:41;;;;;;;37.40;18.30;;;;;;;-1.57;100.00;95863.28;10493318;28;20245;-77
2022/01/08 16:14:42;;;;;;;45.13;23.00;;;;;;;-1.68;100.00;95859.69;10493737;28;20187;-78
2022/01/08 16:19:42;;;;;;;30.43;16.03;;;;;;;-1.60;100.00;95853.22;10492351;28;20559;-78
2022/01/08 16:24:42;;;;;;;37.00;18.53;;;;;;;-1.48;100.00;95853.19;10493500;28;20210;-78
2022/01/08 16:29:43;;;;;;;17.37;8.97;;;;;;;-1.46;100.00;95841.06;10492907;28;20274;-78
2022/01/08 16:34:43;;;;;;;18.70;8.17;;;;;;;-1.35;100.00;95832.63;10492467;28;20187;-77
2022/01/08 16:39:44;;;;;;;14.33;8.70;;;;;;;-1.45;100.00;95834.22;10493936;28;20245;-77
2022/01/08 16:44:44;;;;;;;12.77;7.50;;;;;;;-1.53;100.00;95823.63;10493607;28;20205;-77
2022/01/08 16:49:45;;;;;;;13.83;7.70;;;;;;;-1.59;100.00;95824.88;10493229;28;20203;-77
2022/01/08 16:54:45;;;;;;;20.10;9.37;;;;;;;-1.76;100.00;95812.31;10493661;28;20206;-76
2022/01/08 16:59:46;;;;;;;17.47;7.83;;;;;;;-1.90;100.00;95819.22;10493287;28;20227;-77
2022/01/08 17:04:46;;;;;;;10.20;6.73;;;;;;;-1.87;100.00;95813.06;10493097;28;20194;-78
2022/01/08 17:09:46;;;;;;;15.93;9.03;;;;;;;-2.32;100.00;95800.59;10474946;28;20192;-78
2022/01/08 17:14:47;;;;;;;14.40;8.43;;;;;;;-2.65;100.00;95796.69;10478263;28;20199;-79
2022/01/08 17:19:49;;;;;;;17.83;8.13;;;;;;;-2.58;100.00;95802.28;10500373;28;20217;-79
2022/01/08 17:24:49;;;;;;;13.90;8.37;;;;;;;-2.95;100.00;95795.19;10501600;28;20187;-79
2022/01/08 17:29:50;;;;;;;17.73;7.60;;;;;;;-3.18;100.00;95783.00;10500246;28;20277;-79
2022/01/08 17:34:50;;;;;;;14.07;8.10;;;;;;;-3.39;100.00;95783.38;10499812;28;20199;-79
2022/01/08 17:39:51;;;;;;;16.40;7.60;;;;;;;-3.29;100.00;95773.41;10500435;28;20235;-80
2022/01/08 17:44:51;;;;;;;13.60;7.83;;;;;;;-3.68;100.00;95775.72;10499844;28;20544;-80
2022/01/08 17:49:51;;;;;;;15.27;8.47;;;;;;;-3.86;100.00;95774.28;10481581;28;20198;-80
2022/01/08 17:54:52;;;;;;;16.07;9.53;;;;;;;-3.78;100.00;95762.66;10499049;28;20193;-79
2022/01/08 17:59:52;;;;;;;23.10;12.33;;;;;;;-3.86;100.00;95762.31;10480704;28;20219;-79
2022/01/08 18:04:52;;;;;;;10.93;7.77;;;;;;;-4.02;100.00;95757.28;10498760;28;20714;-80
2022/01/08 18:09:53;;;;;;;18.23;8.67;;;;;;;-3.82;100.00;95745.03;10498815;28;20719;-79
2022/01/08 18:14:54;;;;;;;13.63;7.90;;;;;;;-3.88;100.00;95732.63;10463341;28;20206;-79
2022/01/08 18:19:54;;;;;;;20.30;9.43;;;;;;;-3.90;100.00;95726.78;10480842;28;20227;-79
2022/01/08 18:24:55;;;;;;;19.50;8.13;;;;;;;-4.17;100.00;95730.06;10497861;28;20553;-79
2022/01/08 18:29:55;;;;;;;14.33;7.23;;;;;;;-4.15;100.00;95718.84;10497836;28;20532;-80
2022/01/08 18:34:55;;;;;;;16.53;7.60;;;;;;;-4.19;100.00;95707.13;10498103;28;20183;-80
2022/01/08 18:39:56;;;;;;;17.00;7.57;;;;;;;-3.96;100.00;95692.16;10480431;28;20235;-80
2022/01/08 18:44:56;;;;;;;13.70;7.37;;;;;;;-3.89;100.00;95687.47;10462578;28;20199;-80
2022/01/08 18:49:56;;;;;;;12.90;7.07;;;;;;;-4.01;100.00;95673.69;10497749;28;20197;-80
2022/01/08 18:54:57;;;;;;;15.80;6.77;;;;;;;-4.09;100.00;95663.09;10497572;28;20243;-80
2022/01/08 18:59:58;;;;;;;12.57;6.83;;;;;;;-4.07;100.00;95659.53;10479057;28;20578;-80
2022/01/08 19:04:58;;;;;;;10.67;6.57;;;;;;;-4.21;100.00;95651.88;10497396;28;20199;-80
2022/01/08 19:09:58;;;;;;;14.43;7.90;;;;;;;-4.27;100.00;95637.75;10478812;28;20324;-79
2022/01/08 19:14:59;;;;;;;13.97;7.37;;;;;;;-4.31;100.00;95623.50;10495936;28;20190;-80
2022/01/08 19:20:00;;;;;;;12.03;6.37;;;;;;;-4.40;100.00;95608.72;10478887;28;20302;-79
2022/01/08 19:25:01;;;;;;;11.60;6.73;;;;;;;-4.48;100.00;95597.19;10495997;28;20597;-80
2022/01/08 19:30:03;;;;;;;10.70;5.73;;;;;;;-4.51;100.00;95574.38;10495241;28;20277;-80
2022/01/08 19:35:04;;;;;;;13.00;5.77;;;;;;;-4.54;100.00;95553.31;10495553;28;20182;-80
2022/01/08 19:40:05;;;;;;;6.90;4.10;;;;;;;-4.35;100.00;95542.78;10495015;28;20694;-79
2022/01/08 19:45:07;;;;;;;9.30;4.20;;;;;;;-4.17;100.00;95535.72;10495195;28;20243;-80
2022/01/08 19:50:08;;;;;;;8.27;4.10;;;;;;;-4.13;100.00;95521.81;10495164;28;20218;-80
2022/01/08 19:55:09;;;;;;;4.00;3.03;;;;;;;-3.96;100.00;95508.78;10494179;28;20213;-80
2022/01/08 20:00:11;;;;;;;8.23;3.43;;;;;;;-3.84;100.00;95486.72;10492608;28;20226;-80
2022/01/08 20:05:13;;;;;;;6.53;2.30;;;;;;;-3.83;100.00;95474.72;10493410;28;20668;-80
2022/01/08 20:10:15;;;;;;;2.93;2.50;;;;;;;-3.72;100.00;95468.91;10493119;28;20236;-81
2022/01/08 20:15:15;;;;;;;1.90;1.70;;;;;;;-3.39;100.00;95458.22;10492706;28;20183;-81
2022/01/08 20:20:16;;;;;;;3.40;1.80;;;;;;;-3.22;100.00;95462.19;10502395;28;20245;-80
2022/01/08 20:25:16;;;;;;;6.00;2.43;;;;;;;-3.40;100.00;95425.84;10509824;28;20638;-80
2022/01/08 20:30:17;;;;;;;2.53;1.53;;;;;;;-3.36;100.00;95434.97;10488679;28;20179;-80
2022/01/08 20:35:17;;;;;;;3.03;1.90;;;;;;;-3.52;100.00;95434.34;10512907;28;20194;-82
2022/01/08 20:40:17;;;;;;;7.23;2.73;;;;;;;-3.46;100.00;95421.13;10504062;28;20230;-83
2022/01/08 20:45:18;;;;;;;7.63;3.07;;;;;;;-3.50;100.00;95407.72;10534676;28;20196;-81
2022/01/08 20:50:19;;;;;;;5.97;3.80;;;;;;;-3.44;100.00;95393.69;10515988;28;20187;-80
2022/01/08 20:55:21;;;;;;;4.03;2.87;;;;;;;-3.50;100.00;95377.00;10519388;28;20646;-80
2022/01/08 21:00:21;;;;;;;6.83;3.37;;;;;;;-3.62;100.00;95358.16;10532022;28;20198;-80
2022/01/08 21:05:22;;;;;;;5.50;3.20;;;;;;;-3.65;100.00;95349.88;10495012;28;20195;-81
2022/01/08 21:10:23;;;;;;;3.80;2.27;;;;;;;-3.59;100.00;95345.16;10517919;28;20638;-80
2022/01/08 21:15:23;;;;;;;6.10;3.17;;;;;;;-3.54;100.00;95326.13;10496548;28;20203;-80
2022/01/08 21:20:23;;;;;;;5.70;3.23;;;;;;;-3.56;100.00;95310.06;10486163;28;20191;-80
2022/01/08 21:25:24;;;;;;;3.73;3.20;;;;;;;-3.58;100.00;95298.19;10478613;28;20191;-81
2022/01/08 21:30:24;;;;;;;3.20;2.37;;;;;;;-3.51;100.00;95280.66;10481465;28;20190;-80
2022/01/08 21:35:29;;;;;;;3.23;2.60;;;;;;;-3.53;100.00;95279.94;10480880;28;20210;-80
2022/01/08 21:40:31;;;;;;;3.30;3.00;;;;;;;-3.34;100.00;95268.44;10497958;28;20295;-80
2022/01/08 21:45:36;;;;;;;7.60;4.77;;;;;;;-3.43;100.00;95259.63;10499023;28;20226;-80
2022/01/08 21:50:38;;;;;;;7.87;4.87;;;;;;;-3.43;100.00;95234.88;10498619;28;20195;-80
2022/01/08 21:55:39;;;;;;;5.40;3.77;;;;;;;-3.27;100.00;95218.44;10463749;28;20230;-80
2022/01/08 22:00:39;;;;;;;10.97;4.87;;;;;;;-3.24;100.00;95207.97;10496991;28;20194;-80
2022/01/08 22:05:39;;;;;;;7.10;4.47;;;;;;;-3.14;100.00;95195.31;10498106;28;20194;-80
2022/01/08 22:10:40;;;;;;;8.03;4.03;;;;;;;-3.00;100.00;95217.38;10497481;28;20194;-81
2022/01/08 22:15:40;;;;;;;11.33;4.30;;;;;;;-2.95;100.00;95187.94;10497027;28;20221;-80
2022/01/08 22:20:40;;;;;;;10.80;3.43;;;;;;;-2.91;100.00;95171.44;10498863;28;20191;-80
2022/01/08 22:25:41;;;;;;;9.77;4.37;;;;;;;-2.90;100.00;95157.66;10498288;28;20190;-80
2022/01/08 22:30:41;;;;;;;7.87;3.87;;;;;;;-2.93;100.00;95149.41;10463451;28;20195;-81
2022/01/08 22:35:41;;;;;;;8.57;5.00;;;;;;;-2.95;100.00;95134.13;10480120;28;20285;-81
2022/01/08 22:40:43;;;;;;;7.53;4.87;;;;;;;-2.93;100.00;95119.47;10497667;28;20245;-81
2022/01/08 22:45:44;;;;;;;8.17;3.63;;;;;;;-2.75;100.00;95117.28;10446614;28;20198;-80
2022/01/08 22:50:44;;;;;;;6.37;3.73;;;;;;;-2.76;100.00;95094.34;10479745;28;20534;-80
2022/01/08 22:55:45;;;;;;;6.40;3.87;;;;;;;-2.72;100.00;95060.66;10496957;28;20305;-80
2022/01/08 23:00:49;;;;;;;5.87;3.80;;;;;;;-2.62;100.00;95047.16;10497514;28;20187;-80
2022/01/08 23:05:56;;;;;;;6.00;3.63;;;;;;;-2.70;100.00;95048.53;10496368;28;20211;-81
2022/01/08 23:10:57;;;;;;;4.70;2.97;;;;;;;-2.72;100.00;95036.81;10496937;28;20252;-80
2022/01/08 23:15:59;;;;;;;4.60;3.30;;;;;;;-2.73;100.00;95015.47;10496336;28;20211;-80
2022/01/08 23:21:04;;;;;;;4.83;3.27;;;;;;;-2.60;100.00;95001.72;10495949;28;20722;-80